createdAt,value
2023-03-05T00:02:07.702Z,95569.81
2023-03-05T00:04:34.878Z,95573.50
2023-03-05T00:07:02.239Z,95571.41
2023-03-05T00:09:29.477Z,95564.75
2023-03-05T00:11:56.756Z,95567.56
2023-03-05T00:14:25.417Z,95567.56
2023-03-05T00:16:52.575Z,95575.94
2023-03-05T00:19:19.714Z,95566.72
2023-03-05T00:21:46.954Z,95562.75
2023-03-05T00:24:16.446Z,95563.25
2023-03-05T00:26:44.804Z,95566.19
2023-03-05T00:29:15.942Z,95573.94
2023-03-05T00:31:45.197Z,95570.91
2023-03-05T00:34:15.497Z,95571.47
2023-03-05T00:36:44.832Z,95566.63
2023-03-05T00:39:13.261Z,95567.59
2023-03-05T00:41:40.689Z,95575.63
2023-03-05T00:44:08.019Z,95566.97
2023-03-05T00:46:36.209Z,95570.63
2023-03-05T00:49:05.123Z,95572.34
2023-03-05T00:51:32.359Z,95577.19
2023-03-05T00:53:59.638Z,95569.91
2023-03-05T00:56:26.821Z,95566.31
2023-03-05T00:58:54.119Z,95565.13
2023-03-05T01:01:21.342Z,95569.47
2023-03-05T01:03:48.987Z,95563.69
2023-03-05T01:06:17.955Z,95572.91
2023-03-05T01:08:45.779Z,95568.09
2023-03-05T01:11:13.590Z,95565.88
2023-03-05T01:13:40.865Z,95562.66
2023-03-05T01:16:08.777Z,95555.78
2023-03-05T01:18:38.058Z,95554.00
2023-03-05T01:21:05.991Z,95560.59
2023-03-05T01:23:34.607Z,95554.56
2023-03-05T01:26:01.830Z,95555.28
2023-03-05T01:28:29.152Z,95553.84
2023-03-05T01:30:56.846Z,95547.22
2023-03-05T01:33:24.069Z,95551.19
2023-03-05T01:35:51.508Z,95545.72
2023-03-05T01:38:18.751Z,95543.50
2023-03-05T01:40:47.481Z,95534.16
2023-03-05T01:43:24.552Z,95535.16
2023-03-05T01:46:37.267Z,95525.88
2023-03-05T01:49:15.968Z,95529.22
2023-03-05T01:51:51.927Z,95528.88
2023-03-05T01:54:25.048Z,95519.81
2023-03-05T01:56:59.623Z,95519.34
2023-03-05T01:59:27.983Z,95519.91
2023-03-05T02:01:57.884Z,95515.50
2023-03-05T02:04:34.281Z,95513.50
2023-03-05T02:07:02.460Z,95507.41
2023-03-05T02:09:29.640Z,95505.63
2023-03-05T02:11:58.866Z,95508.28
2023-03-05T02:14:27.183Z,95503.44
2023-03-05T02:16:54.378Z,95512.63
2023-03-05T02:19:21.665Z,95507.41
2023-03-05T02:21:50.667Z,95507.16
2023-03-05T02:24:33.687Z,95508.50
2023-03-05T02:27:02.066Z,95506.81
2023-03-05T02:29:31.844Z,95502.81
2023-03-05T02:31:59.231Z,95502.41
2023-03-05T02:34:26.581Z,95507.03
2023-03-05T02:36:55.077Z,95505.09
2023-03-05T02:39:22.398Z,95504.88
2023-03-05T02:41:49.620Z,95500.75
2023-03-05T02:44:16.717Z,95501.91
2023-03-05T02:46:43.898Z,95502.34
2023-03-05T02:49:11.062Z,95505.78
2023-03-05T02:51:38.241Z,95503.38
2023-03-05T02:54:07.307Z,95508.38
2023-03-05T02:56:34.623Z,95506.50
2023-03-05T02:59:01.810Z,95508.19
2023-03-05T03:01:29.053Z,95505.25
2023-03-05T03:03:56.629Z,95501.38
2023-03-05T03:06:23.795Z,95502.00
2023-03-05T03:08:50.929Z,95506.78
2023-03-05T03:11:19.728Z,95500.84
2023-03-05T03:13:46.891Z,95513.59
2023-03-05T03:16:15.833Z,95510.09
2023-03-05T03:18:43.275Z,95507.31
2023-03-05T03:21:17.849Z,95510.78
2023-03-05T03:23:45.072Z,95501.53
2023-03-05T03:26:12.249Z,95510.00
2023-03-05T03:28:40.871Z,95518.06
2023-03-05T03:31:08.145Z,95513.31
2023-03-05T03:33:35.376Z,95497.25
2023-03-05T03:36:04.094Z,95505.63
2023-03-05T03:38:31.336Z,95506.34
2023-03-05T03:40:58.474Z,95503.16
2023-03-05T03:43:25.638Z,95501.59
2023-03-05T03:45:54.173Z,95501.56
2023-03-05T03:48:21.358Z,95500.69
2023-03-05T03:50:48.518Z,95498.91
2023-03-05T03:53:15.657Z,95499.94
2023-03-05T03:55:43.425Z,95488.50
2023-03-05T03:58:11.098Z,95488.00
2023-03-05T04:00:39.586Z,95495.47
2023-03-05T04:03:08.357Z,95485.50
2023-03-05T04:05:35.560Z,95491.09
2023-03-05T04:08:02.960Z,95485.97
2023-03-05T04:10:30.163Z,95484.31
2023-03-05T04:12:57.306Z,95484.41
2023-03-05T04:15:24.498Z,95489.59
2023-03-05T04:17:51.598Z,95483.63
2023-03-05T04:20:20.419Z,95486.69
2023-03-05T04:22:48.177Z,95486.88
2023-03-05T04:25:15.457Z,95482.66
2023-03-05T04:27:42.678Z,95489.47
2023-03-05T04:30:13.674Z,95492.06
2023-03-05T04:32:41.243Z,95485.53
2023-03-05T04:35:09.392Z,95484.50
2023-03-05T04:37:38.509Z,95483.06
2023-03-05T04:40:07.314Z,95474.19
2023-03-05T04:42:34.533Z,95476.00
2023-03-05T04:45:01.772Z,95483.69
2023-03-05T04:47:28.870Z,95477.75
2023-03-05T04:49:56.014Z,95476.03
2023-03-05T04:52:23.227Z,95471.78
2023-03-05T04:54:51.747Z,95471.06
2023-03-05T04:57:18.931Z,95462.91
2023-03-05T04:59:46.007Z,95476.91
2023-03-05T05:02:13.170Z,95472.47
2023-03-05T05:04:40.369Z,95469.16
2023-03-05T05:07:07.602Z,95469.16
2023-03-05T05:09:35.174Z,95470.56
2023-03-05T05:12:04.418Z,95464.78
2023-03-05T05:14:31.510Z,95458.94
2023-03-05T05:16:58.790Z,95464.13
2023-03-05T05:19:25.960Z,95468.06
2023-03-05T05:21:53.187Z,95461.53
2023-03-05T05:24:20.269Z,95460.09
2023-03-05T05:26:47.435Z,95461.34
2023-03-05T05:29:16.052Z,95463.19
2023-03-05T05:31:43.218Z,95459.72
2023-03-05T05:34:10.475Z,95462.22
2023-03-05T05:36:37.620Z,95458.63
2023-03-05T05:39:05.682Z,95461.59
2023-03-05T05:41:32.929Z,95459.31
2023-03-05T05:44:00.145Z,95462.91
2023-03-05T05:46:28.719Z,95461.41
2023-03-05T05:48:55.949Z,95460.84
2023-03-05T05:51:24.117Z,95455.34
2023-03-05T05:53:52.157Z,95452.66
2023-03-05T05:56:19.587Z,95457.53
2023-03-05T05:58:49.350Z,95457.91
2023-03-05T06:01:19.672Z,95459.53
2023-03-05T06:03:48.827Z,95456.63
2023-03-05T06:06:18.848Z,95457.34
2023-03-05T06:08:46.690Z,95462.06
2023-03-05T06:11:14.418Z,95460.28
2023-03-05T06:13:42.040Z,95457.91
2023-03-05T06:16:15.717Z,95459.97
2023-03-05T06:18:42.975Z,95455.97
2023-03-05T06:21:14.097Z,95457.34
2023-03-05T06:23:42.031Z,95456.41
2023-03-05T06:26:10.735Z,95456.84
2023-03-05T06:28:37.871Z,95458.19
2023-03-05T06:31:07.595Z,95461.22
2023-03-05T06:33:35.529Z,95455.66
2023-03-05T06:36:04.854Z,95460.84
2023-03-05T06:38:34.174Z,95467.31
2023-03-05T06:41:02.495Z,95462.56
2023-03-05T06:43:29.688Z,95469.03
2023-03-05T06:46:02.753Z,95457.66
2023-03-05T06:48:30.129Z,95462.22
2023-03-05T06:50:57.694Z,95462.00
2023-03-05T06:53:25.453Z,95460.09
2023-03-05T06:55:54.932Z,95458.91
2023-03-05T06:58:23.078Z,95465.25
2023-03-05T07:00:50.274Z,95466.38
2023-03-05T07:03:17.374Z,95458.97
2023-03-05T07:05:44.755Z,95458.44
2023-03-05T07:08:11.923Z,95456.84
2023-03-05T07:10:40.794Z,95447.81
2023-03-05T07:13:10.516Z,95447.81
2023-03-05T07:15:40.579Z,95454.47
2023-03-05T07:18:08.274Z,95464.00
2023-03-05T07:20:36.580Z,95453.97
2023-03-05T07:23:04.552Z,95455.13
2023-03-05T07:25:32.574Z,95458.34
2023-03-05T07:27:59.613Z,95458.97
2023-03-05T07:30:28.212Z,95454.94
2023-03-05T07:32:55.436Z,95452.84
2023-03-05T07:35:22.725Z,95452.75
2023-03-05T07:37:49.973Z,95448.06
2023-03-05T07:40:18.232Z,95444.34
2023-03-05T07:42:45.326Z,95448.81
2023-03-05T07:45:12.586Z,95451.63
2023-03-05T07:47:41.112Z,95446.28
2023-03-05T07:50:09.878Z,95441.69
2023-03-05T07:52:37.086Z,95445.03
2023-03-05T07:55:05.287Z,95442.38
2023-03-05T07:57:32.495Z,95440.72
2023-03-05T07:59:59.627Z,95444.44
2023-03-05T08:02:26.800Z,95443.38
2023-03-05T08:04:55.412Z,95443.94
2023-03-05T08:07:22.654Z,95444.34
2023-03-05T08:09:49.811Z,95444.47
2023-03-05T08:12:16.929Z,95450.28
2023-03-05T08:14:44.128Z,95446.50
2023-03-05T08:17:11.290Z,95439.53
2023-03-05T08:19:38.471Z,95445.41
2023-03-05T08:22:07.049Z,95441.72
2023-03-05T08:24:34.246Z,95441.31
2023-03-05T08:27:01.443Z,95441.47
2023-03-05T08:29:28.527Z,95439.31
2023-03-05T08:31:55.726Z,95439.09
2023-03-05T08:34:22.947Z,95438.47
2023-03-05T08:36:50.188Z,95438.34
2023-03-05T08:39:19.146Z,95428.16
2023-03-05T08:41:46.252Z,95431.25
2023-03-05T08:44:13.733Z,95434.97
2023-03-05T08:46:41.766Z,95435.31
2023-03-05T08:49:10.092Z,95434.16
2023-03-05T08:51:37.246Z,95431.47
2023-03-05T08:54:04.526Z,95431.16
2023-03-05T08:56:33.908Z,95430.78
2023-03-05T08:59:01.372Z,95434.66
2023-03-05T09:01:28.695Z,95431.34
2023-03-05T09:03:55.972Z,95430.84
2023-03-05T09:06:23.276Z,95430.25
2023-03-05T09:08:50.470Z,95430.81
2023-03-05T09:11:18.319Z,95428.41
2023-03-05T09:13:46.970Z,95426.25
2023-03-05T09:16:17.253Z,95421.19
2023-03-05T09:18:45.239Z,95419.16
2023-03-05T09:21:16.016Z,95418.34
2023-03-05T09:23:44.508Z,95404.91
2023-03-05T09:26:13.551Z,95409.25
2023-03-05T09:28:41.535Z,95409.41
2023-03-05T09:31:11.496Z,95410.19
2023-03-05T09:33:40.016Z,95409.22
2023-03-05T09:36:22.366Z,95404.53
2023-03-05T09:38:50.324Z,95402.25
2023-03-05T09:41:29.287Z,95398.75
2023-03-05T09:44:11.267Z,95393.53
2023-03-05T09:46:52.390Z,95394.56
2023-03-05T09:49:32.477Z,95395.97
2023-03-05T09:52:07.733Z,95398.56
2023-03-05T09:54:42.127Z,95396.41
2023-03-05T09:57:17.828Z,95390.91
2023-03-05T09:59:51.005Z,95389.66
2023-03-05T10:02:26.415Z,95400.09
2023-03-05T10:05:00.222Z,95401.28
2023-03-05T10:07:32.240Z,95387.78
2023-03-05T10:10:02.309Z,95387.78
2023-03-05T10:12:40.359Z,95377.78
2023-03-05T10:15:12.984Z,95382.28
2023-03-05T10:18:07.703Z,95374.72
2023-03-05T10:20:57.647Z,95375.06
2023-03-05T10:24:01.465Z,95374.69
2023-03-05T10:26:52.632Z,95370.69
2023-03-05T10:29:40.147Z,95365.00
2023-03-05T10:32:22.620Z,95366.69
2023-03-05T10:35:14.364Z,95367.91
2023-03-05T10:38:21.718Z,95356.06
2023-03-05T10:40:54.646Z,95355.28
2023-03-05T10:43:34.560Z,95341.53
2023-03-05T10:46:04.469Z,95343.22
2023-03-05T10:48:41.265Z,95341.41
2023-03-05T10:51:17.394Z,95335.81
2023-03-05T10:53:54.918Z,95330.38
2023-03-05T10:56:25.606Z,95330.97
2023-03-05T10:58:53.871Z,95328.94
2023-03-05T11:01:25.291Z,95316.94
2023-03-05T11:03:56.983Z,95309.16
2023-03-05T11:06:33.765Z,95314.59
2023-03-05T11:09:19.589Z,95311.22
2023-03-05T11:12:05.040Z,95312.25
2023-03-05T11:14:33.387Z,95305.19
2023-03-05T11:17:01.581Z,95307.44
2023-03-05T11:19:31.051Z,95301.38
2023-03-05T11:22:16.389Z,95293.19
2023-03-05T11:24:44.160Z,95291.06
2023-03-05T11:27:31.660Z,95283.44
2023-03-05T11:29:59.520Z,95280.63
2023-03-05T11:32:28.502Z,95282.72
2023-03-05T11:34:56.641Z,95276.59
2023-03-05T11:37:29.040Z,95274.50
2023-03-05T11:40:18.400Z,95269.03
2023-03-05T11:42:50.081Z,95264.53
2023-03-05T11:45:19.482Z,95263.09
2023-03-05T11:47:50.550Z,95258.28
2023-03-05T11:50:23.664Z,95250.47
2023-03-05T11:52:56.180Z,95240.03
2023-03-05T11:55:30.830Z,95242.56
2023-03-05T11:58:17.685Z,95237.28
2023-03-05T12:00:47.299Z,95230.25
2023-03-05T12:03:18.790Z,95231.69
2023-03-05T12:05:51.353Z,95226.59
2023-03-05T12:08:27.746Z,95221.28
2023-03-05T12:10:56.116Z,95218.88
2023-03-05T12:13:29.427Z,95211.91
2023-03-05T12:16:09.874Z,95209.09
2023-03-05T12:18:48.565Z,95195.66
2023-03-05T12:21:26.788Z,95193.88
2023-03-05T12:23:57.840Z,95191.44
2023-03-05T12:27:06.593Z,95191.50
2023-03-05T12:29:44.598Z,95188.47
2023-03-05T12:32:57.458Z,95187.41
2023-03-05T12:35:28.255Z,95179.56
2023-03-05T12:38:28.193Z,95176.31
2023-03-05T12:41:27.460Z,95173.38
2023-03-05T12:44:17.234Z,95167.81
2023-03-05T12:46:45.939Z,95172.06
2023-03-05T12:49:29.296Z,95161.91
2023-03-05T12:51:58.335Z,95151.06
2023-03-05T12:54:31.759Z,95155.09
2023-03-05T12:57:01.597Z,95151.63
2023-03-05T12:59:42.489Z,95147.88
2023-03-05T13:02:26.932Z,95142.91
2023-03-05T13:05:00.340Z,95145.94
2023-03-05T13:07:27.461Z,95144.50
2023-03-05T13:09:56.963Z,95138.31
2023-03-05T13:12:26.284Z,95133.81
2023-03-05T13:15:03.112Z,95135.88
2023-03-05T13:17:35.053Z,95126.97
2023-03-05T13:20:23.833Z,95112.69
2023-03-05T13:23:13.333Z,95117.44
2023-03-05T13:25:40.551Z,95117.44
2023-03-05T13:28:13.030Z,95114.31
2023-03-05T13:30:46.051Z,95116.88
2023-03-05T13:33:19.355Z,95115.59
2023-03-05T13:35:47.300Z,95118.38
2023-03-05T13:38:26.691Z,95109.63
2023-03-05T13:41:21.648Z,95108.72
2023-03-05T13:43:51.151Z,95108.75
2023-03-05T13:46:28.289Z,95107.31
2023-03-05T13:48:55.627Z,95101.97
2023-03-05T13:51:22.869Z,95100.88
2023-03-05T13:53:51.332Z,95089.34
2023-03-05T13:56:20.789Z,95084.38
2023-03-05T13:58:50.947Z,95078.94
2023-03-05T14:01:32.112Z,95079.16
2023-03-05T14:04:07.187Z,95074.38
2023-03-05T14:06:42.614Z,95068.59
2023-03-05T14:09:21.210Z,95063.47
2023-03-05T14:12:01.804Z,95058.59
2023-03-05T14:14:31.102Z,95050.28
2023-03-05T14:17:30.877Z,95050.38
2023-03-05T14:20:09.120Z,95052.59
2023-03-05T14:22:39.022Z,95047.53
2023-03-05T14:25:32.932Z,95040.53
2023-03-05T14:28:01.769Z,95036.59
2023-03-05T14:30:29.394Z,95040.41
2023-03-05T14:33:00.724Z,95032.47
2023-03-05T14:35:30.270Z,95033.63
2023-03-05T14:37:59.805Z,95022.00
2023-03-05T14:40:30.141Z,95015.53
2023-03-05T14:42:58.626Z,95018.28
2023-03-05T14:45:28.278Z,95020.38
2023-03-05T14:48:00.280Z,95010.50
2023-03-05T14:50:29.934Z,94999.16
2023-03-05T14:53:00.416Z,95003.84
2023-03-05T14:55:30.040Z,95001.81
2023-03-05T14:58:02.121Z,94987.38
2023-03-05T15:00:29.494Z,94994.00
2023-03-05T15:02:58.454Z,94992.41
2023-03-05T15:05:25.873Z,94993.31
2023-03-05T15:07:53.515Z,94980.59
2023-03-05T15:10:24.175Z,94973.38
2023-03-05T15:12:52.712Z,94970.38
2023-03-05T15:15:21.737Z,94971.66
2023-03-05T15:17:51.034Z,94968.53
2023-03-05T15:20:21.950Z,94962.63
2023-03-05T15:22:49.173Z,94960.63
2023-03-05T15:25:17.276Z,94950.91
2023-03-05T15:27:45.329Z,94951.69
2023-03-05T15:30:22.874Z,94955.44
2023-03-05T15:32:50.250Z,94948.34
2023-03-05T15:35:17.756Z,94942.69
2023-03-05T15:37:46.665Z,94944.72
2023-03-05T15:40:14.563Z,94944.22
2023-03-05T15:42:41.986Z,94938.34
2023-03-05T15:45:09.962Z,94935.31
2023-03-05T15:47:37.411Z,94934.66
2023-03-05T15:50:05.326Z,94919.66
2023-03-05T15:52:32.673Z,94926.34
2023-03-05T15:55:02.662Z,94920.78
2023-03-05T15:57:29.837Z,94917.84
2023-03-05T15:59:56.955Z,94917.25
2023-03-05T16:02:24.100Z,94919.88
2023-03-05T16:04:51.232Z,94917.84
2023-03-05T16:07:19.322Z,94912.25
2023-03-05T16:09:51.355Z,94913.28
2023-03-05T16:12:26.278Z,94914.09
2023-03-05T16:14:53.521Z,94913.06
2023-03-05T16:17:23.977Z,94908.63
2023-03-05T16:19:55.940Z,94910.44
2023-03-05T16:22:23.240Z,94912.84
2023-03-05T16:24:50.417Z,94912.25
2023-03-05T16:27:19.041Z,94908.31
2023-03-05T16:29:46.240Z,94911.88
2023-03-05T16:32:13.442Z,94908.84
2023-03-05T16:34:40.571Z,94903.22
2023-03-05T16:37:07.717Z,94904.59
2023-03-05T16:39:34.873Z,94906.06
2023-03-05T16:42:02.127Z,94904.38
2023-03-05T16:44:30.849Z,94900.59
2023-03-05T16:46:58.119Z,94900.00
2023-03-05T16:49:25.478Z,94895.59
2023-03-05T16:51:52.596Z,94901.28
2023-03-05T16:54:19.745Z,94901.75
2023-03-05T16:56:46.856Z,94890.50
2023-03-05T16:59:14.203Z,94896.78
2023-03-05T17:01:42.920Z,94899.03
2023-03-05T17:04:10.305Z,94899.66
2023-03-05T17:06:37.917Z,94894.28
2023-03-05T17:09:05.072Z,94893.69
2023-03-05T17:11:32.372Z,94891.31
2023-03-05T17:13:59.499Z,94897.41
2023-03-05T17:16:26.691Z,94892.56
2023-03-05T17:18:55.458Z,94906.50
2023-03-05T17:21:22.798Z,94902.72
2023-03-05T17:23:50.074Z,94903.16
2023-03-05T17:26:19.259Z,94905.19
2023-03-05T17:28:46.595Z,94909.19
2023-03-05T17:31:14.781Z,94902.56
2023-03-05T17:33:42.443Z,94898.91
2023-03-05T17:36:16.340Z,94906.84
2023-03-05T17:38:44.261Z,94900.97
2023-03-05T17:41:12.336Z,94906.41
2023-03-05T17:43:40.169Z,94905.41
2023-03-05T17:46:07.928Z,94903.63
2023-03-05T17:48:35.454Z,94905.28
2023-03-05T17:51:02.634Z,94908.28
2023-03-05T17:53:31.314Z,94907.56
2023-03-05T17:55:58.537Z,94913.41
2023-03-05T17:58:25.676Z,94914.09
2023-03-05T18:00:52.996Z,94920.34
2023-03-05T18:03:20.134Z,94916.78
2023-03-05T18:05:47.357Z,94913.19
2023-03-05T18:08:14.639Z,94915.03
2023-03-05T18:10:43.275Z,94917.47
2023-03-05T18:13:10.438Z,94913.50
2023-03-05T18:15:37.982Z,94917.28
2023-03-05T18:18:05.317Z,94915.44
2023-03-05T18:20:35.676Z,94910.00
2023-03-05T18:23:05.215Z,94911.84
2023-03-05T18:25:32.844Z,94912.28
2023-03-05T18:28:02.999Z,94907.47
2023-03-05T18:30:30.888Z,94911.13
2023-03-05T18:32:58.256Z,94908.72
2023-03-05T18:35:26.011Z,94903.13
2023-03-05T18:37:53.214Z,94904.13
2023-03-05T18:40:22.754Z,94899.31
2023-03-05T18:42:50.340Z,94906.34
2023-03-05T18:45:21.794Z,94901.13
2023-03-05T18:47:49.592Z,94896.91
2023-03-05T18:50:18.073Z,94899.72
2023-03-05T18:52:46.051Z,94895.69
2023-03-05T18:55:16.159Z,94899.53
2023-03-05T18:57:43.291Z,94898.94
2023-03-05T19:00:14.352Z,94891.88
2023-03-05T19:02:43.014Z,94890.88
2023-03-05T19:05:12.118Z,94895.91
2023-03-05T19:07:39.531Z,94895.84
2023-03-05T19:10:10.395Z,94892.06
2023-03-05T19:12:39.460Z,94887.84
2023-03-05T19:15:07.714Z,94885.81
2023-03-05T19:17:34.898Z,94894.84
2023-03-05T19:20:04.615Z,94887.38
2023-03-05T19:22:32.362Z,94880.16
2023-03-05T19:24:59.719Z,94880.38
2023-03-05T19:27:27.076Z,94886.03
2023-03-05T19:29:54.399Z,94877.41
2023-03-05T19:32:21.845Z,94880.22
2023-03-05T19:34:49.716Z,94877.44
2023-03-05T19:37:18.376Z,94873.66
2023-03-05T19:39:45.511Z,94875.63
2023-03-05T19:42:12.796Z,94873.47
2023-03-05T19:44:39.953Z,94873.28
2023-03-05T19:47:07.233Z,94863.03
2023-03-05T19:49:34.391Z,94875.47
2023-03-05T19:52:02.072Z,94873.69
2023-03-05T19:54:30.870Z,94873.69
2023-03-05T19:56:58.090Z,94873.28
2023-03-05T19:59:26.130Z,94869.25
2023-03-05T20:01:54.355Z,94867.28
2023-03-05T20:04:23.049Z,94858.84
2023-03-05T20:06:51.372Z,94869.28
2023-03-05T20:09:19.165Z,94865.28
2023-03-05T20:11:47.909Z,94868.69
2023-03-05T20:14:15.300Z,94873.09
2023-03-05T20:16:43.088Z,94869.50
2023-03-05T20:19:16.717Z,94869.31
2023-03-05T20:21:45.232Z,94862.66
2023-03-05T20:24:14.502Z,94863.28
2023-03-05T20:26:44.354Z,94865.09
2023-03-05T20:29:17.305Z,94859.47
2023-03-05T20:31:45.782Z,94860.47
2023-03-05T20:34:16.138Z,94857.84
2023-03-05T20:36:43.672Z,94854.66
2023-03-05T20:39:11.137Z,94852.47
2023-03-05T20:41:40.006Z,94855.66
2023-03-05T20:44:08.717Z,94850.63
2023-03-05T20:46:40.169Z,94847.22
2023-03-05T20:49:07.538Z,94843.00
2023-03-05T20:51:37.221Z,94838.38
2023-03-05T20:54:07.434Z,94825.91
2023-03-05T20:56:36.272Z,94832.88
2023-03-05T20:59:06.057Z,94833.47
2023-03-05T21:01:35.214Z,94838.78
2023-03-05T21:04:04.648Z,94838.66
2023-03-05T21:06:33.177Z,94843.19
2023-03-05T21:09:01.191Z,94843.94
2023-03-05T21:11:28.742Z,94847.38
2023-03-05T21:13:56.100Z,94849.31
2023-03-05T21:16:27.037Z,94847.00
2023-03-05T21:18:55.142Z,94843.63
2023-03-05T21:21:24.061Z,94844.00
2023-03-05T21:23:51.339Z,94834.38
2023-03-05T21:26:20.848Z,94839.16
2023-03-05T21:28:48.440Z,94835.56
2023-03-05T21:31:19.076Z,94831.75
2023-03-05T21:33:50.378Z,94832.91
2023-03-05T21:36:18.524Z,94825.50
2023-03-05T21:38:48.199Z,94814.28
2023-03-05T21:41:16.017Z,94813.66
2023-03-05T21:43:43.325Z,94821.69
2023-03-05T21:46:10.958Z,94808.84
2023-03-05T21:48:38.456Z,94812.84
2023-03-05T21:51:09.140Z,94804.84
2023-03-05T21:53:36.637Z,94807.84
2023-03-05T21:56:05.734Z,94807.63
2023-03-05T21:58:34.752Z,94807.22
2023-03-05T22:01:02.975Z,94808.81
2023-03-05T22:03:30.801Z,94802.00
2023-03-05T22:05:58.324Z,94795.97
2023-03-05T22:08:25.590Z,94799.19
2023-03-05T22:10:53.190Z,94800.34
2023-03-05T22:13:21.928Z,94790.75
2023-03-05T22:15:52.053Z,94781.72
2023-03-05T22:18:22.150Z,94785.31
2023-03-05T22:20:49.471Z,94785.13
2023-03-05T22:23:18.090Z,94781.50
2023-03-05T22:25:45.848Z,94777.13
2023-03-05T22:28:13.928Z,94782.94
2023-03-05T22:30:46.342Z,94785.34
2023-03-05T22:33:14.029Z,94775.16
2023-03-05T22:35:42.515Z,94771.13
2023-03-05T22:38:11.373Z,94765.72
2023-03-05T22:40:43.506Z,94771.91
2023-03-05T22:43:11.692Z,94772.69
2023-03-05T22:45:39.108Z,94775.50
2023-03-05T22:48:08.386Z,94774.69
2023-03-05T22:50:35.944Z,94773.72
2023-03-05T22:53:03.673Z,94773.88
2023-03-05T22:55:30.966Z,94774.66
2023-03-05T22:57:58.104Z,94778.47
2023-03-05T23:00:25.747Z,94771.47
2023-03-05T23:02:53.993Z,94766.25
2023-03-05T23:05:22.830Z,94765.03
2023-03-05T23:07:50.076Z,94777.88
2023-03-05T23:10:20.122Z,94770.63
2023-03-05T23:12:49.342Z,94773.00
2023-03-05T23:15:18.835Z,94772.41
2023-03-05T23:17:46.210Z,94764.75
2023-03-05T23:20:15.579Z,94765.53
2023-03-05T23:22:45.383Z,94763.28
2023-03-05T23:25:15.438Z,94762.25
2023-03-05T23:27:43.130Z,94755.41
2023-03-05T23:30:12.942Z,94765.19
2023-03-05T23:32:40.159Z,94761.03
2023-03-05T23:35:10.021Z,94767.06
2023-03-05T23:37:37.178Z,94758.50
2023-03-05T23:40:09.736Z,94759.31
2023-03-05T23:42:37.394Z,94756.09
2023-03-05T23:45:06.115Z,94755.28
2023-03-05T23:47:35.711Z,94762.69
2023-03-05T23:50:03.912Z,94767.66
2023-03-05T23:52:31.130Z,94764.28
2023-03-05T23:54:58.932Z,94766.06
2023-03-05T23:57:27.633Z,94766.41
2023-03-05T23:59:54.718Z,94763.63
